Hearne, TX (77859)

8:19 PM CST on December 17, 2014 (GMT -0600)
Hearne | Change Station
CLOSE
Current Station
Airport
Location: Hearne,
Elevation: 285 ft
Nearby Weather Stations

Elev 285 ft 30.87 °N, 96.62 °W | Updated 24 minutes ago

Mostly Cloudy
Mostly Cloudy
48 °F
Feels Like 48 °F
N
0
Wind Variable Wind from North

Today
High -- | Low -- °F
--% Chance of Precip.
Yesterday
High -- | Low -- °F
Precip. -- in
7:17 AM 5:27 PM
Waning Crescent, 18% visible
Pressure 30.10 in
Visibility 10.0 miles
Clouds Scattered Clouds 1900 ft
Mostly Cloudy 11000 ft
Dew Point 46 °F
Humidity 92%
Rainfall 0.71 in
Snow Depth Not available.
UV 0 out of 12
Pollen 7.00 out of 12
Air Quality Not available.
Flu Activity Not available.
METAR KLHB 180155Z AUTO 00000KT 10SM SCT019 BKN110 09/08 A3010 RMK AO2 T00900077

More Conditions Fewer Conditions

Pressure 30.10 in
Visibility 10.0 miles
Clouds Scattered Clouds 1900 ft
Mostly Cloudy 11000 ft
Dew Point 46 °F
Humidity 92%
Rainfall 0.71 in
Snow Depth Not available.
UV 0 out of 12
Pollen 7.00 out of 12
Air Quality Not available.
Flu Activity Not available.
METAR KLHB 180155Z AUTO 00000KT 10SM SCT019 BKN110 09/08 A3010 RMK AO2 T00900077

More Conditions Fewer Conditions

Nowcast | as of 6:42 PM CST on December 17, 2014

Widely scattered showers and drizzle will continue moving to the northeast across north and central Texas this evening. Additional rainfall will not amount to much...with less than one tenth of an inch possible. The showers will taper off from west to east over the next several hours. Elsewhere...skies will be cloudy with temperatures falling into the low 40s and upper 30s.

×

10-Day Weather Forecast

Almanac

Astronomy

Dec. 17, 2014 Rise Set
Actual Time
Civil Twilight
Nautical Twilight
Astronomical Twilight
Moon
Length of Visible Light
Length of Day
Tomorrow will be .
, % of the Moon is Illuminated

Today's Extremes

State Highs State Lows

Community

WunderPhotos

Upload Photos

1,778,859 photos uploaded!

WunderBlogs® & News

Nearby

Air Quality

  Air Quality AQ Index Pollutant
Not available.

Snow Depth

Station Depth Elevation

Earthquake Activity

City Distance Mag. Time & Date
Minimum magnitude displayed is 2.5.

Coastal Water Temperatures

Place Temperature

Nearby Weather Stations